Date,TemperatureHighF,TemperatureAvgF,TemperatureLowF,DewpointHighF,DewpointAvgF,DewpointLowF,HumidityHigh,HumidityAvg,HumidityLow,PressureMaxIn,PressureMinIn,WindSpeedMaxMPH,WindSpeedAvgMPH,GustSpeedMaxMPH,PrecipitationSumIn
2013-1-1,20,10,0,7,-1,-6,90,64,37,30.56,30.28,17,3,18,0.00
2013-1-2,23,11,2,1,-4,-8,69,51,33,30.64,30.46,18,4,20,0.00
2013-1-3,27,10,-4,-5,-9,-13,65,44,20,30.77,30.61,15,3,18,0.00
2013-1-4,38,21,7,8,1,-6,55,42,28,30.66,30.29,17,3,21,0.00
2013-1-5,40,25,14,3,0,-5,48,34,18,30.52,30.32,10,2,11,0.00
2013-1-6,39,22,7,3,-3,-9,49,34,20,30.53,30.29,18,5,20,0.00
2013-1-7,41,25,11,4,0,-4,55,35,19,30.31,30.10,12,4,14,0.00
2013-1-8,42,30,21,14,6,-8,53,36,22,30.42,30.08,13,3,16,0.00
2013-1-9,44,28,18,11,7,5,57,42,23,30.56,30.28,15,4,17,0.00
2013-1-10,37,24,14,14,6,1,66,47,26,30.28,29.73,25,6,28,0.00
2013-1-11,24,16,4,20,2,-15,91,55,24,30.01,29.44,25,6,31,0.00
2013-1-12,13,3,-8,-6,-12,-18,65,50,35,30.35,30.01,9,2,12,0.00
2013-1-13,10,0,-11,-3,-10,-19,85,63,48,30.52,30.35,15,3,16,0.00
2013-1-14,12,1,-7,0,-7,-13,83,69,51,30.56,30.41,9,2,10,0.00
2013-1-15,23,10,-4,9,-4,-16,61,52,38,30.68,30.53,35,8,41,0.00
2013-1-16,42,27,15,16,12,6,68,53,35,30.65,30.41,20,3,20,0.00
2013-1-17,41,25,13,17,12,6,77,58,37,30.64,30.46,18,4,19,0.00
2013-1-18,42,28,14,12,5,0,64,39,22,30.52,30.30,12,4,12,0.00
2013-1-19,47,32,19,6,1,-4,40,27,15,30.48,30.31,8,2,10,0.00
2013-1-20,45,31,17,4,-2,-8,39,25,11,30.36,30.17,12,3,12,0.00
2013-1-21,46,32,19,11,3,-7,45,29,18,30.33,30.21,14,4,17,0.00
2013-1-22,52,37,24,-3,-10,-22,28,14,4,30.34,30.22,16,3,18,0.00
2013-1-23,56,37,20,-2,-9,-16,25,15,5,30.38,30.24,14,4,16,0.00
2013-1-24,51,41,31,25,12,-7,65,33,15,30.27,29.94,35,7,37,0.00
2013-1-25,47,37,27,28,26,22,81,64,45,30.17,30.06,15,2,15,0.00
2013-1-26,42,35,31,32,27,23,96,76,56,30.10,29.74,18,4,22,0.03
2013-1-27,48,38,29,31,25,16,87,63,28,29.80,29.72,19,5,23,0.03
2013-1-28,36,29,20,30,22,10,95,78,53,29.76,29.55,19,4,29,0.01
2013-1-29,20,15,9,14,0,-11,81,54,28,30.17,29.68,33,9,38,0.00
2013-1-30,27,19,4,9,1,-7,64,46,33,30.29,30.17,35,10,39,0.00
2013-1-31,38,30,22,12,7,2,55,39,25,30.29,30.21,32,8,36,0.00